sensor_id;sensor_type;location;lat;lon;timestamp;P1;durP1;ratioP1;P2;durP2;ratioP2
43150;SDS011;28755;51.478;5.702;2024-01-30T00:01:10;11.75;;;8.82;;
43150;SDS011;28755;51.478;5.702;2024-01-30T00:03:36;14.27;;;9.65;;
43150;SDS011;28755;51.478;5.702;2024-01-30T00:06:03;13.25;;;8.80;;
43150;SDS011;28755;51.478;5.702;2024-01-30T00:08:28;16.98;;;9.35;;
43150;SDS011;28755;51.478;5.702;2024-01-30T00:10:54;15.02;;;9.82;;
43150;SDS011;28755;51.478;5.702;2024-01-30T00:13:20;15.35;;;9.50;;
43150;SDS011;28755;51.478;5.702;2024-01-30T00:15:46;12.75;;;8.35;;
43150;SDS011;28755;51.478;5.702;2024-01-30T00:18:11;13.68;;;8.25;;
43150;SDS011;28755;51.478;5.702;2024-01-30T00:20:37;15.68;;;9.73;;
43150;SDS011;28755;51.478;5.702;2024-01-30T00:23:03;13.05;;;9.05;;
43150;SDS011;28755;51.478;5.702;2024-01-30T00:25:28;16.15;;;9.50;;
43150;SDS011;28755;51.478;5.702;2024-01-30T00:27:54;13.93;;;9.45;;
43150;SDS011;28755;51.478;5.702;2024-01-30T00:30:20;14.45;;;10.27;;
43150;SDS011;28755;51.478;5.702;2024-01-30T00:32:46;15.52;;;10.32;;
43150;SDS011;28755;51.478;5.702;2024-01-30T00:35:11;15.23;;;9.77;;
43150;SDS011;28755;51.478;5.702;2024-01-30T00:37:37;16.83;;;10.18;;
43150;SDS011;28755;51.478;5.702;2024-01-30T00:40:03;14.85;;;9.77;;
43150;SDS011;28755;51.478;5.702;2024-01-30T00:42:29;17.58;;;10.63;;
43150;SDS011;28755;51.478;5.702;2024-01-30T00:44:54;14.35;;;10.13;;
43150;SDS011;28755;51.478;5.702;2024-01-30T00:47:20;15.35;;;10.30;;
43150;SDS011;28755;51.478;5.702;2024-01-30T00:49:45;15.90;;;10.13;;
43150;SDS011;28755;51.478;5.702;2024-01-30T00:52:11;15.32;;;10.35;;
43150;SDS011;28755;51.478;5.702;2024-01-30T00:54:37;13.88;;;10.23;;
43150;SDS011;28755;51.478;5.702;2024-01-30T00:57:03;21.38;;;11.10;;
43150;SDS011;28755;51.478;5.702;2024-01-30T00:59:28;16.85;;;11.02;;
43150;SDS011;28755;51.478;5.702;2024-01-30T01:01:54;15.65;;;10.15;;
43150;SDS011;28755;51.478;5.702;2024-01-30T01:04:19;17.08;;;11.38;;
43150;SDS011;28755;51.478;5.702;2024-01-30T01:06:46;18.13;;;11.05;;
43150;SDS011;28755;51.478;5.702;2024-01-30T01:09:12;19.58;;;11.93;;
43150;SDS011;28755;51.478;5.702;2024-01-30T01:11:38;15.52;;;11.13;;
43150;SDS011;28755;51.478;5.702;2024-01-30T01:14:04;16.27;;;11.13;;
43150;SDS011;28755;51.478;5.702;2024-01-30T01:16:30;14.00;;;10.77;;
43150;SDS011;28755;51.478;5.702;2024-01-30T01:18:55;17.10;;;11.50;;
43150;SDS011;28755;51.478;5.702;2024-01-30T01:21:21;19.95;;;11.65;;
43150;SDS011;28755;51.478;5.702;2024-01-30T01:23:47;18.58;;;11.05;;
43150;SDS011;28755;51.478;5.702;2024-01-30T01:26:12;17.52;;;11.65;;
43150;SDS011;28755;51.478;5.702;2024-01-30T01:28:41;19.98;;;11.00;;
43150;SDS011;28755;51.478;5.702;2024-01-30T01:31:07;18.73;;;11.75;;
43150;SDS011;28755;51.478;5.702;2024-01-30T01:33:32;14.98;;;10.43;;
43150;SDS011;28755;51.478;5.702;2024-01-30T01:35:59;17.67;;;11.13;;
43150;SDS011;28755;51.478;5.702;2024-01-30T01:38:27;19.00;;;11.07;;
43150;SDS011;28755;51.478;5.702;2024-01-30T01:40:53;16.38;;;10.90;;
43150;SDS011;28755;51.478;5.702;2024-01-30T01:43:18;15.65;;;10.55;;
43150;SDS011;28755;51.478;5.702;2024-01-30T01:45:44;15.85;;;10.52;;
43150;SDS011;28755;51.478;5.702;2024-01-30T01:48:10;17.77;;;10.70;;
43150;SDS011;28755;51.478;5.702;2024-01-30T01:50:37;16.60;;;10.65;;
43150;SDS011;28755;51.478;5.702;2024-01-30T01:53:04;21.10;;;12.13;;
43150;SDS011;28755;51.478;5.702;2024-01-30T01:55:32;22.58;;;11.15;;
43150;SDS011;28755;51.478;5.702;2024-01-30T01:57:59;17.17;;;12.32;;
43150;SDS011;28755;51.478;5.702;2024-01-30T02:00:26;18.30;;;11.40;;
43150;SDS011;28755;51.478;5.702;2024-01-30T02:02:52;15.90;;;11.18;;
43150;SDS011;28755;51.478;5.702;2024-01-30T02:05:19;16.77;;;11.00;;
43150;SDS011;28755;51.478;5.702;2024-01-30T02:07:45;19.35;;;11.68;;
43150;SDS011;28755;51.478;5.702;2024-01-30T02:10:11;15.07;;;11.10;;
43150;SDS011;28755;51.478;5.702;2024-01-30T02:12:37;15.48;;;10.48;;
43150;SDS011;28755;51.478;5.702;2024-01-30T02:15:03;16.08;;;11.10;;
43150;SDS011;28755;51.478;5.702;2024-01-30T02:17:30;18.42;;;10.63;;
43150;SDS011;28755;51.478;5.702;2024-01-30T02:19:55;15.82;;;10.63;;
43150;SDS011;28755;51.478;5.702;2024-01-30T02:22:21;16.73;;;11.45;;
43150;SDS011;28755;51.478;5.702;2024-01-30T02:24:48;16.38;;;11.07;;
43150;SDS011;28755;51.478;5.702;2024-01-30T02:27:14;15.80;;;10.88;;
43150;SDS011;28755;51.478;5.702;2024-01-30T02:29:40;22.30;;;11.10;;
43150;SDS011;28755;51.478;5.702;2024-01-30T02:32:06;18.08;;;10.82;;
43150;SDS011;28755;51.478;5.702;2024-01-30T02:34:32;22.25;;;11.40;;
43150;SDS011;28755;51.478;5.702;2024-01-30T02:36:58;16.38;;;11.10;;
43150;SDS011;28755;51.478;5.702;2024-01-30T02:39:23;24.38;;;11.10;;
43150;SDS011;28755;51.478;5.702;2024-01-30T02:41:49;16.88;;;10.65;;
43150;SDS011;28755;51.478;5.702;2024-01-30T02:44:15;21.05;;;10.88;;
43150;SDS011;28755;51.478;5.702;2024-01-30T02:46:40;15.93;;;10.60;;
43150;SDS011;28755;51.478;5.702;2024-01-30T02:49:06;16.95;;;10.60;;
43150;SDS011;28755;51.478;5.702;2024-01-30T02:51:31;17.52;;;10.23;;
43150;SDS011;28755;51.478;5.702;2024-01-30T02:53:57;14.77;;;10.52;;
43150;SDS011;28755;51.478;5.702;2024-01-30T02:56:23;17.38;;;10.38;;
43150;SDS011;28755;51.478;5.702;2024-01-30T02:58:48;15.23;;;10.35;;
43150;SDS011;28755;51.478;5.702;2024-01-30T03:01:14;17.08;;;10.07;;
43150;SDS011;28755;51.478;5.702;2024-01-30T03:03:39;16.40;;;10.50;;
43150;SDS011;28755;51.478;5.702;2024-01-30T03:06:05;15.80;;;10.52;;
43150;SDS011;28755;51.478;5.702;2024-01-30T03:08:32;17.75;;;10.13;;
43150;SDS011;28755;51.478;5.702;2024-01-30T03:10:57;17.00;;;10.25;;
43150;SDS011;28755;51.478;5.702;2024-01-30T03:13:23;17.50;;;10.23;;
43150;SDS011;28755;51.478;5.702;2024-01-30T03:15:50;15.25;;;10.88;;
43150;SDS011;28755;51.478;5.702;2024-01-30T03:18:15;17.20;;;10.13;;
43150;SDS011;28755;51.478;5.702;2024-01-30T03:20:41;17.95;;;10.43;;
43150;SDS011;28755;51.478;5.702;2024-01-30T03:23:07;19.20;;;10.57;;
43150;SDS011;28755;51.478;5.702;2024-01-30T03:25:32;15.70;;;9.48;;
43150;SDS011;28755;51.478;5.702;2024-01-30T03:27:58;15.13;;;10.30;;
43150;SDS011;28755;51.478;5.702;2024-01-30T03:30:23;17.90;;;10.73;;
43150;SDS011;28755;51.478;5.702;2024-01-30T03:32:49;15.05;;;9.70;;
43150;SDS011;28755;51.478;5.702;2024-01-30T03:35:15;13.85;;;9.43;;
43150;SDS011;28755;51.478;5.702;2024-01-30T03:37:40;17.00;;;9.90;;
43150;SDS011;28755;51.478;5.702;2024-01-30T03:40:06;12.55;;;8.95;;
43150;SDS011;28755;51.478;5.702;2024-01-30T03:42:32;15.82;;;9.68;;
43150;SDS011;28755;51.478;5.702;2024-01-30T03:44:58;14.15;;;9.70;;
43150;SDS011;28755;51.478;5.702;2024-01-30T03:47:23;16.40;;;10.07;;
43150;SDS011;28755;51.478;5.702;2024-01-30T03:49:49;16.05;;;10.20;;
43150;SDS011;28755;51.478;5.702;2024-01-30T03:52:15;13.85;;;9.10;;
43150;SDS011;28755;51.478;5.702;2024-01-30T03:54:40;20.52;;;9.60;;
43150;SDS011;28755;51.478;5.702;2024-01-30T03:57:06;16.38;;;9.15;;
43150;SDS011;28755;51.478;5.702;2024-01-30T03:59:31;14.90;;;9.52;;
43150;SDS011;28755;51.478;5.702;2024-01-30T04:01:57;13.90;;;9.10;;
43150;SDS011;28755;51.478;5.702;2024-01-30T04:04:23;14.65;;;8.85;;
43150;SDS011;28755;51.478;5.702;2024-01-30T04:06:48;15.85;;;9.45;;
43150;SDS011;28755;51.478;5.702;2024-01-30T04:09:14;13.77;;;9.05;;
43150;SDS011;28755;51.478;5.702;2024-01-30T04:11:40;17.65;;;9.25;;
43150;SDS011;28755;51.478;5.702;2024-01-30T04:14:06;14.65;;;9.23;;
43150;SDS011;28755;51.478;5.702;2024-01-30T04:16:32;13.07;;;8.80;;
43150;SDS011;28755;51.478;5.702;2024-01-30T04:18:58;16.63;;;8.85;;
43150;SDS011;28755;51.478;5.702;2024-01-30T04:21:24;15.23;;;9.63;;
43150;SDS011;28755;51.478;5.702;2024-01-30T04:23:50;13.38;;;9.30;;
43150;SDS011;28755;51.478;5.702;2024-01-30T04:26:16;13.55;;;9.10;;
43150;SDS011;28755;51.478;5.702;2024-01-30T04:28:42;15.50;;;9.10;;
43150;SDS011;28755;51.478;5.702;2024-01-30T04:31:09;12.80;;;8.63;;
43150;SDS011;28755;51.478;5.702;2024-01-30T04:33:35;13.73;;;9.10;;
43150;SDS011;28755;51.478;5.702;2024-01-30T04:36:01;12.52;;;8.30;;
43150;SDS011;28755;51.478;5.702;2024-01-30T04:38:28;12.05;;;8.13;;
43150;SDS011;28755;51.478;5.702;2024-01-30T04:40:53;12.35;;;8.30;;
43150;SDS011;28755;51.478;5.702;2024-01-30T04:43:19;15.23;;;8.80;;
43150;SDS011;28755;51.478;5.702;2024-01-30T04:45:44;14.25;;;8.13;;
43150;SDS011;28755;51.478;5.702;2024-01-30T04:48:10;15.25;;;8.77;;
43150;SDS011;28755;51.478;5.702;2024-01-30T04:50:36;13.25;;;8.48;;
43150;SDS011;28755;51.478;5.702;2024-01-30T04:53:01;13.70;;;9.40;;
43150;SDS011;28755;51.478;5.702;2024-01-30T04:55:27;13.85;;;8.93;;
43150;SDS011;28755;51.478;5.702;2024-01-30T04:57:53;15.60;;;9.02;;
43150;SDS011;28755;51.478;5.702;2024-01-30T05:00:18;11.88;;;8.40;;
43150;SDS011;28755;51.478;5.702;2024-01-30T05:02:44;17.75;;;9.88;;
43150;SDS011;28755;51.478;5.702;2024-01-30T05:05:10;17.15;;;9.45;;
43150;SDS011;28755;51.478;5.702;2024-01-30T05:07:36;16.02;;;9.27;;
43150;SDS011;28755;51.478;5.702;2024-01-30T05:10:02;15.30;;;8.80;;
43150;SDS011;28755;51.478;5.702;2024-01-30T05:12:28;12.85;;;8.07;;
43150;SDS011;28755;51.478;5.702;2024-01-30T05:14:54;11.75;;;8.20;;
43150;SDS011;28755;51.478;5.702;2024-01-30T05:17:19;13.43;;;8.38;;
43150;SDS011;28755;51.478;5.702;2024-01-30T05:19:45;13.23;;;8.25;;
43150;SDS011;28755;51.478;5.702;2024-01-30T05:22:11;12.70;;;8.68;;
43150;SDS011;28755;51.478;5.702;2024-01-30T05:24:40;11.98;;;8.18;;
43150;SDS011;28755;51.478;5.702;2024-01-30T05:27:07;14.43;;;8.23;;
43150;SDS011;28755;51.478;5.702;2024-01-30T05:29:33;12.10;;;8.00;;
43150;SDS011;28755;51.478;5.702;2024-01-30T05:31:58;16.20;;;8.25;;
43150;SDS011;28755;51.478;5.702;2024-01-30T05:34:24;11.43;;;7.40;;
43150;SDS011;28755;51.478;5.702;2024-01-30T05:36:49;16.15;;;8.15;;
43150;SDS011;28755;51.478;5.702;2024-01-30T05:39:15;15.05;;;8.20;;
43150;SDS011;28755;51.478;5.702;2024-01-30T05:41:41;14.40;;;7.93;;
43150;SDS011;28755;51.478;5.702;2024-01-30T05:44:06;16.73;;;8.77;;
43150;SDS011;28755;51.478;5.702;2024-01-30T05:46:33;12.25;;;8.40;;
43150;SDS011;28755;51.478;5.702;2024-01-30T05:48:58;14.32;;;8.45;;
43150;SDS011;28755;51.478;5.702;2024-01-30T05:51:24;12.70;;;8.88;;
43150;SDS011;28755;51.478;5.702;2024-01-30T05:53:50;14.90;;;9.00;;
43150;SDS011;28755;51.478;5.702;2024-01-30T05:56:15;13.63;;;8.30;;
43150;SDS011;28755;51.478;5.702;2024-01-30T05:58:41;12.93;;;8.23;;
43150;SDS011;28755;51.478;5.702;2024-01-30T06:01:08;12.93;;;8.23;;
43150;SDS011;28755;51.478;5.702;2024-01-30T06:03:34;11.65;;;8.15;;
43150;SDS011;28755;51.478;5.702;2024-01-30T06:06:00;13.07;;;7.85;;
43150;SDS011;28755;51.478;5.702;2024-01-30T06:08:26;14.82;;;8.35;;
43150;SDS011;28755;51.478;5.702;2024-01-30T06:10:51;14.63;;;8.10;;
43150;SDS011;28755;51.478;5.702;2024-01-30T06:13:17;12.95;;;7.90;;
43150;SDS011;28755;51.478;5.702;2024-01-30T06:15:43;14.60;;;8.48;;
43150;SDS011;28755;51.478;5.702;2024-01-30T06:18:08;12.10;;;7.95;;
43150;SDS011;28755;51.478;5.702;2024-01-30T06:20:34;14.57;;;8.82;;
43150;SDS011;28755;51.478;5.702;2024-01-30T06:23:00;13.60;;;8.73;;
43150;SDS011;28755;51.478;5.702;2024-01-30T06:25:25;14.23;;;10.02;;
43150;SDS011;28755;51.478;5.702;2024-01-30T06:27:51;13.50;;;8.40;;
43150;SDS011;28755;51.478;5.702;2024-01-30T06:30:17;17.42;;;8.73;;
43150;SDS011;28755;51.478;5.702;2024-01-30T06:32:43;14.20;;;8.85;;
43150;SDS011;28755;51.478;5.702;2024-01-30T06:35:09;16.10;;;8.93;;
43150;SDS011;28755;51.478;5.702;2024-01-30T06:37:35;14.68;;;9.27;;
43150;SDS011;28755;51.478;5.702;2024-01-30T06:40:01;12.32;;;8.77;;
43150;SDS011;28755;51.478;5.702;2024-01-30T06:42:27;14.38;;;7.90;;
43150;SDS011;28755;51.478;5.702;2024-01-30T06:44:53;12.75;;;8.48;;
43150;SDS011;28755;51.478;5.702;2024-01-30T06:47:18;14.35;;;9.35;;
43150;SDS011;28755;51.478;5.702;2024-01-30T06:49:44;15.52;;;8.25;;
43150;SDS011;28755;51.478;5.702;2024-01-30T06:52:10;14.95;;;8.68;;
43150;SDS011;28755;51.478;5.702;2024-01-30T06:54:36;11.40;;;8.32;;
43150;SDS011;28755;51.478;5.702;2024-01-30T06:57:01;12.45;;;8.15;;
43150;SDS011;28755;51.478;5.702;2024-01-30T06:59:27;14.07;;;8.18;;
43150;SDS011;28755;51.478;5.702;2024-01-30T07:01:53;12.85;;;7.43;;
43150;SDS011;28755;51.478;5.702;2024-01-30T07:04:19;11.50;;;7.65;;
43150;SDS011;28755;51.478;5.702;2024-01-30T07:06:44;12.30;;;7.70;;
43150;SDS011;28755;51.478;5.702;2024-01-30T07:09:10;12.43;;;7.88;;
43150;SDS011;28755;51.478;5.702;2024-01-30T07:11:37;10.57;;;6.60;;
43150;SDS011;28755;51.478;5.702;2024-01-30T07:14:02;12.32;;;6.90;;
43150;SDS011;28755;51.478;5.702;2024-01-30T07:16:31;10.52;;;6.60;;
43150;SDS011;28755;51.478;5.702;2024-01-30T07:18:56;12.40;;;7.13;;
43150;SDS011;28755;51.478;5.702;2024-01-30T07:21:22;10.18;;;6.72;;
43150;SDS011;28755;51.478;5.702;2024-01-30T07:23:56;12.02;;;6.72;;
43150;SDS011;28755;51.478;5.702;2024-01-30T07:26:22;13.07;;;7.10;;
43150;SDS011;28755;51.478;5.702;2024-01-30T07:28:48;11.45;;;7.03;;
43150;SDS011;28755;51.478;5.702;2024-01-30T07:31:15;13.35;;;7.63;;
43150;SDS011;28755;51.478;5.702;2024-01-30T07:33:40;13.80;;;7.03;;
43150;SDS011;28755;51.478;5.702;2024-01-30T07:36:06;15.25;;;7.22;;
43150;SDS011;28755;51.478;5.702;2024-01-30T07:38:31;12.38;;;6.97;;
43150;SDS011;28755;51.478;5.702;2024-01-30T07:40:57;16.50;;;6.40;;
43150;SDS011;28755;51.478;5.702;2024-01-30T07:43:23;11.25;;;6.13;;
43150;SDS011;28755;51.478;5.702;2024-01-30T07:45:48;11.07;;;5.50;;
43150;SDS011;28755;51.478;5.702;2024-01-30T07:48:14;11.77;;;6.28;;
43150;SDS011;28755;51.478;5.702;2024-01-30T07:50:39;10.23;;;5.78;;
43150;SDS011;28755;51.478;5.702;2024-01-30T07:53:05;8.65;;;5.75;;
43150;SDS011;28755;51.478;5.702;2024-01-30T07:55:31;10.38;;;5.65;;
43150;SDS011;28755;51.478;5.702;2024-01-30T07:57:57;10.40;;;5.90;;
43150;SDS011;28755;51.478;5.702;2024-01-30T08:00:26;11.13;;;5.57;;
43150;SDS011;28755;51.478;5.702;2024-01-30T08:02:54;9.60;;;5.63;;
43150;SDS011;28755;51.478;5.702;2024-01-30T08:05:20;12.55;;;6.13;;
43150;SDS011;28755;51.478;5.702;2024-01-30T08:07:47;9.88;;;5.80;;
43150;SDS011;28755;51.478;5.702;2024-01-30T08:10:14;9.90;;;5.82;;
43150;SDS011;28755;51.478;5.702;2024-01-30T08:12:40;13.73;;;6.30;;
43150;SDS011;28755;51.478;5.702;2024-01-30T08:15:06;9.43;;;6.22;;
43150;SDS011;28755;51.478;5.702;2024-01-30T08:17:32;12.25;;;6.55;;
43150;SDS011;28755;51.478;5.702;2024-01-30T08:19:58;10.35;;;6.28;;
43150;SDS011;28755;51.478;5.702;2024-01-30T08:22:24;12.70;;;7.47;;
43150;SDS011;28755;51.478;5.702;2024-01-30T08:24:49;14.68;;;6.72;;
43150;SDS011;28755;51.478;5.702;2024-01-30T08:27:15;11.63;;;6.60;;
43150;SDS011;28755;51.478;5.702;2024-01-30T08:29:40;10.65;;;6.18;;
43150;SDS011;28755;51.478;5.702;2024-01-30T08:32:06;9.68;;;5.78;;
43150;SDS011;28755;51.478;5.702;2024-01-30T08:34:32;9.15;;;5.40;;
43150;SDS011;28755;51.478;5.702;2024-01-30T08:36:58;10.02;;;6.05;;
43150;SDS011;28755;51.478;5.702;2024-01-30T08:39:24;9.73;;;5.68;;
43150;SDS011;28755;51.478;5.702;2024-01-30T08:41:49;10.20;;;5.68;;
43150;SDS011;28755;51.478;5.702;2024-01-30T08:44:15;9.25;;;6.15;;
43150;SDS011;28755;51.478;5.702;2024-01-30T08:46:41;8.77;;;5.88;;
43150;SDS011;28755;51.478;5.702;2024-01-30T08:49:07;10.13;;;5.40;;
43150;SDS011;28755;51.478;5.702;2024-01-30T08:51:33;15.45;;;5.95;;
43150;SDS011;28755;51.478;5.702;2024-01-30T08:53:58;12.60;;;6.03;;
43150;SDS011;28755;51.478;5.702;2024-01-30T08:56:25;10.40;;;5.82;;
43150;SDS011;28755;51.478;5.702;2024-01-30T08:58:50;11.48;;;5.97;;
43150;SDS011;28755;51.478;5.702;2024-01-30T09:01:16;9.82;;;6.15;;
43150;SDS011;28755;51.478;5.702;2024-01-30T09:03:41;14.63;;;6.10;;
43150;SDS011;28755;51.478;5.702;2024-01-30T09:06:10;13.70;;;6.72;;
43150;SDS011;28755;51.478;5.702;2024-01-30T09:08:36;12.50;;;6.38;;
43150;SDS011;28755;51.478;5.702;2024-01-30T09:11:09;10.32;;;5.72;;
43150;SDS011;28755;51.478;5.702;2024-01-30T09:13:39;14.50;;;6.95;;
43150;SDS011;28755;51.478;5.702;2024-01-30T09:16:05;11.15;;;6.05;;
43150;SDS011;28755;51.478;5.702;2024-01-30T09:18:31;13.32;;;6.60;;
43150;SDS011;28755;51.478;5.702;2024-01-30T09:20:57;11.70;;;5.60;;
43150;SDS011;28755;51.478;5.702;2024-01-30T09:23:22;10.23;;;5.95;;
43150;SDS011;28755;51.478;5.702;2024-01-30T09:25:48;12.07;;;6.53;;
43150;SDS011;28755;51.478;5.702;2024-01-30T09:28:14;11.18;;;5.97;;
43150;SDS011;28755;51.478;5.702;2024-01-30T09:30:40;9.20;;;6.20;;
43150;SDS011;28755;51.478;5.702;2024-01-30T09:33:06;10.07;;;5.90;;
43150;SDS011;28755;51.478;5.702;2024-01-30T09:35:32;10.45;;;6.45;;
43150;SDS011;28755;51.478;5.702;2024-01-30T09:37:57;11.65;;;6.53;;
43150;SDS011;28755;51.478;5.702;2024-01-30T09:40:23;8.35;;;6.00;;
43150;SDS011;28755;51.478;5.702;2024-01-30T09:42:52;14.07;;;6.05;;
43150;SDS011;28755;51.478;5.702;2024-01-30T09:45:19;14.10;;;7.05;;
43150;SDS011;28755;51.478;5.702;2024-01-30T09:47:49;13.52;;;6.95;;
43150;SDS011;28755;51.478;5.702;2024-01-30T09:50:14;12.50;;;6.45;;
43150;SDS011;28755;51.478;5.702;2024-01-30T09:52:41;14.68;;;6.75;;
43150;SDS011;28755;51.478;5.702;2024-01-30T09:55:09;16.83;;;7.63;;
43150;SDS011;28755;51.478;5.702;2024-01-30T09:57:35;18.35;;;7.90;;
43150;SDS011;28755;51.478;5.702;2024-01-30T10:00:01;17.90;;;7.25;;
43150;SDS011;28755;51.478;5.702;2024-01-30T10:02:28;12.23;;;7.20;;
43150;SDS011;28755;51.478;5.702;2024-01-30T10:04:53;15.23;;;7.93;;
43150;SDS011;28755;51.478;5.702;2024-01-30T10:07:19;14.48;;;7.15;;
43150;SDS011;28755;51.478;5.702;2024-01-30T10:09:45;15.00;;;7.80;;
43150;SDS011;28755;51.478;5.702;2024-01-30T10:12:10;13.30;;;7.20;;
43150;SDS011;28755;51.478;5.702;2024-01-30T10:14:40;11.50;;;6.82;;
43150;SDS011;28755;51.478;5.702;2024-01-30T10:17:09;16.47;;;7.43;;
43150;SDS011;28755;51.478;5.702;2024-01-30T10:19:36;13.80;;;6.90;;
43150;SDS011;28755;51.478;5.702;2024-01-30T10:22:03;13.98;;;7.43;;
43150;SDS011;28755;51.478;5.702;2024-01-30T10:24:29;12.25;;;6.45;;
43150;SDS011;28755;51.478;5.702;2024-01-30T10:26:55;12.38;;;6.60;;
43150;SDS011;28755;51.478;5.702;2024-01-30T10:29:20;11.25;;;5.80;;
43150;SDS011;28755;51.478;5.702;2024-01-30T10:31:46;14.25;;;6.70;;
43150;SDS011;28755;51.478;5.702;2024-01-30T10:34:23;16.38;;;6.63;;
43150;SDS011;28755;51.478;5.702;2024-01-30T10:36:50;17.55;;;6.80;;
43150;SDS011;28755;51.478;5.702;2024-01-30T10:39:17;10.88;;;5.97;;
43150;SDS011;28755;51.478;5.702;2024-01-30T10:41:45;13.35;;;5.78;;
43150;SDS011;28755;51.478;5.702;2024-01-30T10:44:13;11.52;;;6.32;;
43150;SDS011;28755;51.478;5.702;2024-01-30T10:46:46;12.48;;;6.68;;
43150;SDS011;28755;51.478;5.702;2024-01-30T10:49:19;13.00;;;6.72;;
43150;SDS011;28755;51.478;5.702;2024-01-30T10:51:47;15.73;;;6.25;;
43150;SDS011;28755;51.478;5.702;2024-01-30T10:54:14;14.77;;;6.28;;
43150;SDS011;28755;51.478;5.702;2024-01-30T10:56:42;14.93;;;6.40;;
43150;SDS011;28755;51.478;5.702;2024-01-30T10:59:08;11.45;;;6.55;;
43150;SDS011;28755;51.478;5.702;2024-01-30T11:01:34;14.25;;;6.50;;
43150;SDS011;28755;51.478;5.702;2024-01-30T11:04:01;16.77;;;6.60;;
43150;SDS011;28755;51.478;5.702;2024-01-30T11:06:26;15.18;;;6.50;;
43150;SDS011;28755;51.478;5.702;2024-01-30T11:09:05;15.57;;;6.90;;
43150;SDS011;28755;51.478;5.702;2024-01-30T11:11:51;14.68;;;7.20;;
43150;SDS011;28755;51.478;5.702;2024-01-30T11:14:23;15.07;;;7.22;;
43150;SDS011;28755;51.478;5.702;2024-01-30T11:16:50;14.50;;;6.32;;
43150;SDS011;28755;51.478;5.702;2024-01-30T11:19:21;18.40;;;7.40;;
43150;SDS011;28755;51.478;5.702;2024-01-30T11:21:50;13.30;;;6.40;;
43150;SDS011;28755;51.478;5.702;2024-01-30T11:24:19;11.90;;;7.38;;
43150;SDS011;28755;51.478;5.702;2024-01-30T11:26:57;13.70;;;6.43;;
43150;SDS011;28755;51.478;5.702;2024-01-30T11:29:24;18.23;;;8.45;;
43150;SDS011;28755;51.478;5.702;2024-01-30T11:31:55;11.63;;;6.70;;
43150;SDS011;28755;51.478;5.702;2024-01-30T11:34:22;11.93;;;6.57;;
43150;SDS011;28755;51.478;5.702;2024-01-30T11:36:51;11.55;;;6.55;;
43150;SDS011;28755;51.478;5.702;2024-01-30T11:39:25;14.32;;;6.50;;
43150;SDS011;28755;51.478;5.702;2024-01-30T11:41:51;12.90;;;7.10;;
43150;SDS011;28755;51.478;5.702;2024-01-30T11:44:18;13.25;;;6.15;;
43150;SDS011;28755;51.478;5.702;2024-01-30T11:46:45;11.35;;;6.43;;
43150;SDS011;28755;51.478;5.702;2024-01-30T11:49:12;12.90;;;6.43;;
43150;SDS011;28755;51.478;5.702;2024-01-30T11:51:38;15.13;;;6.15;;
43150;SDS011;28755;51.478;5.702;2024-01-30T11:54:04;10.13;;;5.57;;
43150;SDS011;28755;51.478;5.702;2024-01-30T11:56:29;12.52;;;5.50;;
43150;SDS011;28755;51.478;5.702;2024-01-30T11:58:55;15.05;;;5.97;;
43150;SDS011;28755;51.478;5.702;2024-01-30T12:01:20;12.27;;;5.07;;
43150;SDS011;28755;51.478;5.702;2024-01-30T12:03:50;13.43;;;5.45;;
43150;SDS011;28755;51.478;5.702;2024-01-30T12:06:16;10.57;;;5.75;;
43150;SDS011;28755;51.478;5.702;2024-01-30T12:08:41;9.35;;;5.03;;
43150;SDS011;28755;51.478;5.702;2024-01-30T12:11:07;10.15;;;5.00;;
43150;SDS011;28755;51.478;5.702;2024-01-30T12:13:33;10.18;;;4.60;;
43150;SDS011;28755;51.478;5.702;2024-01-30T12:16:02;10.93;;;5.03;;
43150;SDS011;28755;51.478;5.702;2024-01-30T12:18:28;10.90;;;5.10;;
43150;SDS011;28755;51.478;5.702;2024-01-30T12:20:57;9.40;;;4.22;;
43150;SDS011;28755;51.478;5.702;2024-01-30T12:23:26;16.27;;;4.15;;
43150;SDS011;28755;51.478;5.702;2024-01-30T12:25:53;13.10;;;4.43;;
43150;SDS011;28755;51.478;5.702;2024-01-30T12:28:19;8.90;;;3.90;;
43150;SDS011;28755;51.478;5.702;2024-01-30T12:30:45;7.10;;;3.88;;
43150;SDS011;28755;51.478;5.702;2024-01-30T12:33:17;7.90;;;3.33;;
43150;SDS011;28755;51.478;5.702;2024-01-30T12:35:46;10.90;;;3.70;;
43150;SDS011;28755;51.478;5.702;2024-01-30T12:38:13;7.88;;;3.85;;
43150;SDS011;28755;51.478;5.702;2024-01-30T12:40:39;6.07;;;3.10;;
43150;SDS011;28755;51.478;5.702;2024-01-30T12:43:05;9.90;;;3.30;;
43150;SDS011;28755;51.478;5.702;2024-01-30T12:45:31;9.85;;;4.45;;
43150;SDS011;28755;51.478;5.702;2024-01-30T12:47:57;10.52;;;5.05;;
43150;SDS011;28755;51.478;5.702;2024-01-30T12:50:23;9.38;;;5.13;;
43150;SDS011;28755;51.478;5.702;2024-01-30T12:52:49;11.45;;;5.50;;
43150;SDS011;28755;51.478;5.702;2024-01-30T12:55:14;12.27;;;5.13;;
43150;SDS011;28755;51.478;5.702;2024-01-30T12:57:40;16.23;;;4.70;;
43150;SDS011;28755;51.478;5.702;2024-01-30T13:00:06;14.60;;;5.07;;
43150;SDS011;28755;51.478;5.702;2024-01-30T13:02:36;10.23;;;4.57;;
43150;SDS011;28755;51.478;5.702;2024-01-30T13:05:02;7.45;;;3.38;;
43150;SDS011;28755;51.478;5.702;2024-01-30T13:07:29;8.15;;;2.70;;
43150;SDS011;28755;51.478;5.702;2024-01-30T13:09:55;8.52;;;2.30;;
43150;SDS011;28755;51.478;5.702;2024-01-30T13:12:21;7.63;;;1.95;;
43150;SDS011;28755;51.478;5.702;2024-01-30T13:14:47;5.90;;;1.60;;
43150;SDS011;28755;51.478;5.702;2024-01-30T13:17:12;5.25;;;1.40;;
43150;SDS011;28755;51.478;5.702;2024-01-30T13:19:38;3.08;;;1.10;;
43150;SDS011;28755;51.478;5.702;2024-01-30T13:22:05;4.05;;;1.40;;
43150;SDS011;28755;51.478;5.702;2024-01-30T13:24:30;3.47;;;1.20;;
43150;SDS011;28755;51.478;5.702;2024-01-30T13:26:56;4.22;;;1.00;;
43150;SDS011;28755;51.478;5.702;2024-01-30T13:29:22;3.85;;;0.93;;
43150;SDS011;28755;51.478;5.702;2024-01-30T13:31:47;5.55;;;0.80;;
43150;SDS011;28755;51.478;5.702;2024-01-30T13:34:13;3.05;;;0.68;;
43150;SDS011;28755;51.478;5.702;2024-01-30T13:36:39;3.67;;;0.80;;
43150;SDS011;28755;51.478;5.702;2024-01-30T13:39:04;7.50;;;0.88;;
43150;SDS011;28755;51.478;5.702;2024-01-30T13:41:35;5.55;;;0.60;;
43150;SDS011;28755;51.478;5.702;2024-01-30T13:44:01;2.83;;;0.80;;
43150;SDS011;28755;51.478;5.702;2024-01-30T13:46:28;4.45;;;0.85;;
43150;SDS011;28755;51.478;5.702;2024-01-30T13:48:54;3.83;;;0.80;;
43150;SDS011;28755;51.478;5.702;2024-01-30T13:51:20;4.15;;;1.05;;
43150;SDS011;28755;51.478;5.702;2024-01-30T13:53:45;9.57;;;1.02;;
43150;SDS011;28755;51.478;5.702;2024-01-30T13:56:11;6.40;;;0.73;;
43150;SDS011;28755;51.478;5.702;2024-01-30T13:58:37;5.05;;;0.80;;
43150;SDS011;28755;51.478;5.702;2024-01-30T14:01:03;3.40;;;1.00;;
43150;SDS011;28755;51.478;5.702;2024-01-30T14:03:28;4.38;;;0.70;;
43150;SDS011;28755;51.478;5.702;2024-01-30T14:05:54;3.25;;;0.90;;
43150;SDS011;28755;51.478;5.702;2024-01-30T14:08:20;3.70;;;1.08;;
43150;SDS011;28755;51.478;5.702;2024-01-30T14:10:48;6.70;;;0.95;;
43150;SDS011;28755;51.478;5.702;2024-01-30T14:13:14;3.05;;;0.85;;
43150;SDS011;28755;51.478;5.702;2024-01-30T14:15:40;6.22;;;0.90;;
43150;SDS011;28755;51.478;5.702;2024-01-30T14:18:05;6.70;;;0.77;;
43150;SDS011;28755;51.478;5.702;2024-01-30T14:20:33;3.75;;;0.90;;
43150;SDS011;28755;51.478;5.702;2024-01-30T14:22:58;3.33;;;0.88;;
43150;SDS011;28755;51.478;5.702;2024-01-30T14:25:24;3.22;;;0.77;;
43150;SDS011;28755;51.478;5.702;2024-01-30T14:27:50;4.88;;;1.00;;